createdAt,value
2019-04-10T00:02:03.043Z,1.33
2019-04-10T00:04:29.645Z,1.60
2019-04-10T00:07:10.374Z,2.03
2019-04-10T00:09:27.358Z,1.50
2019-04-10T00:11:54.126Z,1.70
2019-04-10T00:14:20.792Z,1.60
2019-04-10T00:16:49.904Z,1.63
2019-04-10T00:19:16.790Z,1.37
2019-04-10T00:21:43.857Z,1.43
2019-04-10T00:24:11.505Z,1.30
2019-04-10T00:26:38.244Z,1.40
2019-04-10T00:29:05.734Z,1.60
2019-04-10T00:31:33.828Z,1.40
2019-04-10T00:34:01.054Z,1.30
2019-04-10T00:36:28.836Z,1.80
2019-04-10T00:38:57.932Z,1.57
2019-04-10T00:41:25.027Z,1.50
2019-04-10T00:43:51.595Z,1.33
2019-04-10T00:46:18.363Z,1.67
2019-04-10T00:48:44.980Z,1.50
2019-04-10T00:51:11.682Z,1.40
2019-04-10T00:53:38.335Z,1.70
2019-04-10T00:56:05.297Z,1.60
2019-04-10T00:58:32.406Z,1.40
2019-04-10T01:00:59.248Z,1.73
2019-04-10T01:03:44.117Z,1.30
2019-04-10T01:06:13.663Z,1.93
2019-04-10T01:08:41.087Z,1.47
2019-04-10T01:11:08.615Z,1.70
2019-04-10T01:13:35.315Z,1.60
2019-04-10T01:16:02.793Z,1.73
2019-04-10T01:18:29.480Z,1.53
2019-04-10T01:20:56.152Z,1.67
2019-04-10T01:23:24.631Z,2.00
2019-04-10T01:25:51.562Z,1.97
2019-04-10T01:28:18.545Z,1.53
2019-04-10T01:30:46.485Z,1.50
2019-04-10T01:33:13.195Z,1.57
2019-04-10T01:35:42.528Z,1.70
2019-04-10T01:38:11.357Z,1.80
2019-04-10T01:40:39.297Z,1.50
2019-04-10T01:43:11.456Z,1.67
2019-04-10T01:45:35.809Z,1.50
2019-04-10T01:48:02.429Z,1.70
2019-04-10T01:50:32.599Z,1.50
2019-04-10T01:52:59.615Z,1.53
2019-04-10T01:55:29.842Z,1.70
2019-04-10T01:57:56.999Z,1.90
2019-04-10T02:00:24.355Z,1.50
2019-04-10T02:02:51.818Z,1.77
2019-04-10T02:05:18.776Z,1.70
2019-04-10T02:07:59.405Z,1.63
2019-04-10T02:10:16.917Z,1.50
2019-04-10T02:12:45.092Z,1.83
2019-04-10T02:15:14.139Z,1.60
2019-04-10T02:17:41.071Z,1.53
2019-04-10T02:20:08.180Z,1.73
2019-04-10T02:22:34.736Z,1.70
2019-04-10T02:25:03.315Z,1.70
2019-04-10T02:27:30.233Z,1.50
2019-04-10T02:29:57.875Z,1.40
2019-04-10T02:32:26.278Z,1.60
2019-04-10T02:34:53.306Z,2.00
2019-04-10T02:37:22.876Z,1.60
2019-04-10T02:39:52.967Z,1.80
2019-04-10T02:42:18.670Z,1.70
2019-04-10T02:44:45.967Z,1.70
2019-04-10T02:47:13.466Z,1.70
2019-04-10T02:49:42.622Z,1.80
2019-04-10T02:52:10.947Z,1.50
2019-04-10T02:54:39.707Z,1.90
2019-04-10T02:57:07.457Z,2.30
2019-04-10T02:59:35.183Z,1.70
2019-04-10T03:02:04.279Z,1.70
2019-04-10T03:04:32.950Z,1.97
2019-04-10T03:07:00.064Z,1.90
2019-04-10T03:09:42.057Z,1.80
2019-04-10T03:11:57.273Z,1.40
2019-04-10T03:14:24.444Z,1.83
2019-04-10T03:16:51.518Z,1.97
2019-04-10T03:19:19.197Z,2.20
2019-04-10T03:21:48.490Z,1.77
2019-04-10T03:24:16.163Z,1.83
2019-04-10T03:26:42.856Z,1.70
2019-04-10T03:29:09.522Z,1.83
2019-04-10T03:31:36.920Z,1.80
2019-04-10T03:34:26.087Z,1.90
2019-04-10T03:36:53.772Z,1.70
2019-04-10T03:39:21.617Z,1.63
2019-04-10T03:41:48.695Z,2.20
2019-04-10T03:44:18.914Z,1.70
2019-04-10T03:46:46.838Z,2.00
2019-04-10T03:49:13.781Z,1.90
2019-04-10T03:51:40.910Z,1.97
2019-04-10T03:54:07.580Z,1.90
2019-04-10T03:56:34.405Z,1.90
2019-04-10T03:59:02.041Z,1.90
2019-04-10T04:01:29.404Z,2.30
2019-04-10T04:03:57.218Z,1.50
2019-04-10T04:06:24.050Z,1.90
2019-04-10T04:09:01.294Z,2.00
2019-04-10T04:11:19.760Z,1.80
2019-04-10T04:13:46.400Z,1.87
2019-04-10T04:16:15.000Z,2.20
2019-04-10T04:18:41.984Z,1.80
2019-04-10T04:21:09.828Z,2.50
2019-04-10T04:23:36.605Z,2.10
2019-04-10T04:26:03.368Z,1.93
2019-04-10T04:28:31.956Z,2.30
2019-04-10T04:30:59.325Z,2.00
2019-04-10T04:33:28.145Z,2.13
2019-04-10T04:35:55.408Z,2.80
2019-04-10T04:38:23.653Z,2.17
2019-04-10T04:40:52.798Z,2.20
2019-04-10T04:43:21.701Z,2.17
2019-04-10T04:45:48.962Z,2.43
2019-04-10T04:48:19.504Z,2.67
2019-04-10T04:50:46.266Z,2.10
2019-04-10T04:53:14.174Z,2.42
2019-04-10T04:55:40.923Z,2.22
2019-04-10T04:58:07.853Z,2.05
2019-04-10T05:00:34.874Z,2.30
2019-04-10T05:03:01.953Z,2.20
2019-04-10T05:05:29.310Z,2.20
2019-04-10T05:08:01.174Z,1.77
2019-04-10T05:10:26.603Z,2.07
2019-04-10T05:12:53.751Z,1.90
2019-04-10T05:15:24.748Z,1.97
2019-04-10T05:17:52.199Z,1.97
2019-04-10T05:20:19.054Z,2.03
2019-04-10T05:22:46.375Z,2.20
2019-04-10T05:25:16.827Z,2.37
2019-04-10T05:27:43.600Z,2.50
2019-04-10T05:30:11.069Z,1.90
2019-04-10T05:32:39.702Z,2.00
2019-04-10T05:35:10.166Z,2.00
2019-04-10T05:37:37.942Z,2.60
2019-04-10T05:40:05.495Z,1.97
2019-04-10T05:42:33.119Z,1.90
2019-04-10T05:45:00.735Z,2.83
2019-04-10T05:47:28.376Z,2.37
2019-04-10T05:49:55.555Z,2.20
2019-04-10T05:52:24.594Z,2.17
2019-04-10T05:54:51.626Z,2.00
2019-04-10T05:57:23.148Z,1.70
2019-04-10T05:59:50.299Z,1.90
2019-04-10T06:02:17.846Z,2.07
2019-04-10T06:04:45.468Z,1.83
2019-04-10T06:07:12.728Z,2.17
2019-04-10T06:09:51.987Z,1.83
2019-04-10T06:12:09.917Z,1.67
2019-04-10T06:14:37.938Z,1.60
2019-04-10T06:17:05.843Z,1.50
2019-04-10T06:19:34.307Z,2.07
2019-04-10T06:22:01.146Z,1.40
2019-04-10T06:24:28.064Z,1.20
2019-04-10T06:26:56.083Z,1.50
2019-04-10T06:29:23.254Z,1.50
2019-04-10T06:31:50.241Z,1.33
2019-04-10T06:34:18.918Z,1.50
2019-04-10T06:36:46.619Z,1.63
2019-04-10T06:39:13.563Z,1.63
2019-04-10T06:41:41.108Z,1.60
2019-04-10T06:44:07.960Z,1.30
2019-04-10T06:46:37.562Z,1.60
2019-04-10T06:49:05.567Z,1.17
2019-04-10T06:51:35.506Z,1.53
2019-04-10T06:54:09.106Z,1.40
2019-04-10T06:56:33.376Z,1.63
2019-04-10T06:59:00.385Z,1.30
2019-04-10T07:01:39.046Z,1.43
2019-04-10T07:04:02.866Z,1.67
2019-04-10T07:06:39.306Z,1.80
2019-04-10T07:08:55.358Z,1.77
2019-04-10T07:11:24.205Z,1.90
2019-04-10T07:13:51.230Z,1.97
2019-04-10T07:16:20.108Z,1.50
2019-04-10T07:18:49.103Z,1.87
2019-04-10T07:21:16.694Z,2.13
2019-04-10T07:23:44.959Z,2.00
2019-04-10T07:26:14.547Z,1.90
2019-04-10T07:28:43.971Z,1.80
2019-04-10T07:31:10.504Z,1.60
2019-04-10T07:33:38.480Z,1.40
2019-04-10T07:36:08.960Z,1.47
2019-04-10T07:38:33.764Z,1.23
2019-04-10T07:41:01.644Z,1.80
2019-04-10T07:43:29.506Z,1.20
2019-04-10T07:45:58.919Z,1.57
2019-04-10T07:48:27.449Z,1.40
2019-04-10T07:50:54.378Z,1.10
2019-04-10T07:53:20.944Z,1.20
2019-04-10T07:55:58.391Z,1.17
2019-04-10T07:58:19.410Z,1.20
2019-04-10T08:00:49.794Z,1.20
2019-04-10T08:03:18.858Z,1.10
2019-04-10T08:05:46.125Z,1.13
2019-04-10T08:08:12.772Z,1.20
2019-04-10T08:10:42.018Z,1.27
2019-04-10T08:13:08.589Z,1.00
2019-04-10T08:15:35.769Z,1.30
2019-04-10T08:18:03.160Z,1.40
2019-04-10T08:20:32.690Z,1.10
2019-04-10T08:23:00.123Z,1.43
2019-04-10T08:25:27.039Z,1.40
2019-04-10T08:27:54.313Z,1.50
2019-04-10T08:30:21.202Z,1.40
2019-04-10T08:32:57.248Z,1.23
2019-04-10T08:35:17.552Z,1.30
2019-04-10T08:37:45.270Z,1.40
2019-04-10T08:40:15.703Z,1.50
2019-04-10T08:42:45.011Z,1.30
2019-04-10T08:45:11.519Z,1.40
2019-04-10T08:47:39.679Z,1.23
2019-04-10T08:50:09.650Z,1.37
2019-04-10T08:52:37.058Z,1.00
2019-04-10T08:55:05.970Z,1.50
2019-04-10T08:57:34.174Z,1.70
2019-04-10T09:00:02.667Z,1.30
2019-04-10T09:02:32.460Z,1.27
2019-04-10T09:04:59.668Z,1.13
2019-04-10T09:07:26.661Z,1.20
2019-04-10T09:09:54.160Z,1.40
2019-04-10T09:12:21.897Z,1.10
2019-04-10T09:14:49.603Z,1.25
2019-04-10T09:17:17.357Z,1.17
2019-04-10T09:19:44.920Z,1.25
2019-04-10T09:22:12.044Z,1.00
2019-04-10T09:24:39.523Z,1.33
2019-04-10T09:27:06.893Z,1.20
2019-04-10T09:29:33.528Z,1.17
2019-04-10T09:32:00.138Z,1.40
2019-04-10T09:34:27.747Z,1.20
2019-04-10T09:36:55.644Z,1.40
2019-04-10T09:39:25.397Z,1.30
2019-04-10T09:41:52.442Z,1.00
2019-04-10T09:44:19.370Z,1.20
2019-04-10T09:46:46.393Z,1.17
2019-04-10T09:49:14.399Z,2.27
2019-04-10T09:51:42.468Z,1.50
2019-04-10T09:54:09.898Z,1.40
2019-04-10T09:56:36.768Z,1.20
2019-04-10T09:59:03.668Z,1.30
2019-04-10T10:01:30.559Z,1.30
2019-04-10T10:03:59.145Z,1.40
2019-04-10T10:06:33.098Z,1.40
2019-04-10T10:08:56.458Z,1.30
2019-04-10T10:11:24.219Z,1.40
2019-04-10T10:13:52.174Z,1.60
2019-04-10T10:16:19.321Z,1.63
2019-04-10T10:18:46.214Z,1.47
2019-04-10T10:21:14.429Z,1.43
2019-04-10T10:23:42.995Z,1.27
2019-04-10T10:26:10.069Z,1.30
2019-04-10T10:28:39.502Z,1.17
2019-04-10T10:31:06.300Z,1.10
2019-04-10T10:33:34.017Z,1.43
2019-04-10T10:36:01.278Z,1.37
2019-04-10T10:38:28.055Z,1.37
2019-04-10T10:40:54.874Z,1.40
2019-04-10T10:43:22.561Z,1.30
2019-04-10T10:45:49.343Z,1.40
2019-04-10T10:48:15.910Z,1.70
2019-04-10T10:50:43.634Z,1.40
2019-04-10T10:53:10.416Z,1.40
2019-04-10T10:55:37.969Z,1.70
2019-04-10T10:58:05.710Z,1.53
2019-04-10T11:00:35.489Z,1.50
2019-04-10T11:03:03.669Z,1.50
2019-04-10T11:05:32.370Z,1.50
2019-04-10T11:08:00.284Z,1.97
2019-04-10T11:10:27.576Z,1.70
2019-04-10T11:12:55.285Z,1.53
2019-04-10T11:15:23.900Z,1.60
2019-04-10T11:17:52.002Z,1.50
2019-04-10T11:20:20.688Z,1.30
2019-04-10T11:22:49.509Z,1.03
2019-04-10T11:25:16.925Z,1.70
2019-04-10T11:27:44.195Z,1.50
2019-04-10T11:30:12.715Z,1.42
2019-04-10T11:32:40.424Z,1.67
2019-04-10T11:35:08.015Z,1.42
2019-04-10T11:37:43.435Z,1.45
2019-04-10T11:40:06.899Z,1.27
2019-04-10T11:42:35.096Z,1.40
2019-04-10T11:45:06.378Z,1.40
2019-04-10T11:47:35.482Z,1.30
2019-04-10T11:50:06.081Z,1.37
2019-04-10T11:52:39.525Z,1.50
2019-04-10T11:55:10.557Z,1.40
2019-04-10T11:57:32.461Z,1.62
2019-04-10T12:00:04.100Z,1.57
2019-04-10T12:02:34.431Z,1.57
2019-04-10T12:05:08.961Z,1.40
2019-04-10T12:08:20.991Z,1.40
2019-04-10T12:12:29.962Z,1.52
2019-04-10T12:14:58.025Z,1.55
2019-04-10T12:17:25.611Z,1.60
2019-04-10T12:19:53.012Z,1.70
2019-04-10T12:22:19.811Z,2.00
2019-04-10T12:24:49.601Z,1.37
2019-04-10T12:27:16.700Z,1.65
2019-04-10T12:29:43.685Z,1.90
2019-04-10T12:32:10.407Z,2.00
2019-04-10T12:34:37.149Z,1.80
2019-04-10T12:37:04.264Z,1.80
2019-04-10T12:39:32.179Z,1.80
2019-04-10T12:41:59.715Z,1.80
2019-04-10T12:44:26.628Z,1.57
2019-04-10T12:46:53.336Z,2.03
2019-04-10T12:49:22.063Z,2.00
2019-04-10T12:51:48.705Z,2.23
2019-04-10T12:54:15.477Z,2.00
2019-04-10T12:56:43.447Z,2.07
2019-04-10T12:59:11.155Z,1.53
2019-04-10T13:01:38.904Z,1.40
2019-04-10T13:04:07.548Z,1.72
2019-04-10T13:06:35.903Z,1.62
2019-04-10T13:09:09.227Z,1.75
2019-04-10T13:11:36.390Z,1.63
2019-04-10T13:14:03.511Z,1.93
2019-04-10T13:16:30.241Z,1.73
2019-04-10T13:18:57.016Z,1.80
2019-04-10T13:21:23.795Z,1.57
2019-04-10T13:23:50.531Z,1.80
2019-04-10T13:26:17.588Z,1.50
2019-04-10T13:28:44.793Z,1.60
2019-04-10T13:31:12.919Z,1.40
2019-04-10T13:33:40.943Z,1.87
2019-04-10T13:36:08.415Z,1.60
2019-04-10T13:38:35.899Z,1.50
2019-04-10T13:41:04.263Z,1.70
2019-04-10T13:43:31.385Z,1.73
2019-04-10T13:45:58.427Z,2.07
2019-04-10T13:48:25.093Z,1.87
2019-04-10T13:50:51.784Z,1.80
2019-04-10T13:53:18.774Z,1.80
2019-04-10T13:55:45.774Z,1.80
2019-04-10T13:58:13.056Z,2.00
2019-04-10T14:00:42.858Z,1.80
2019-04-10T14:03:10.290Z,1.93
2019-04-10T14:05:37.170Z,1.43
2019-04-10T14:08:06.105Z,1.90
2019-04-10T14:10:35.232Z,2.23
2019-04-10T14:13:03.256Z,1.40
2019-04-10T14:15:31.647Z,1.77
2019-04-10T14:17:59.814Z,1.70
2019-04-10T14:20:27.026Z,2.00
2019-04-10T14:23:10.548Z,1.50
2019-04-10T14:25:48.035Z,1.70
2019-04-10T14:28:16.416Z,1.57
2019-04-10T14:30:43.695Z,1.80
2019-04-10T14:33:10.615Z,1.77
2019-04-10T14:35:38.999Z,2.03
2019-04-10T14:38:06.573Z,2.00
2019-04-10T14:40:33.412Z,1.90
2019-04-10T14:43:01.846Z,1.83
2019-04-10T14:45:29.718Z,1.83
2019-04-10T14:47:57.183Z,2.00
2019-04-10T14:50:26.045Z,1.90
2019-04-10T14:52:53.811Z,2.10
2019-04-10T14:55:21.932Z,1.43
2019-04-10T14:57:48.901Z,2.30
2019-04-10T15:00:30.714Z,1.70
2019-04-10T15:02:58.031Z,2.10
2019-04-10T15:05:25.841Z,2.00
2019-04-10T15:07:53.307Z,2.20
2019-04-10T15:10:20.263Z,1.63
2019-04-10T15:12:47.927Z,2.03
2019-04-10T15:15:18.665Z,1.87
2019-04-10T15:17:47.243Z,1.90
2019-04-10T15:20:13.833Z,1.97
2019-04-10T15:22:42.137Z,1.73
2019-04-10T15:25:08.895Z,2.50
2019-04-10T15:27:35.571Z,2.60
2019-04-10T15:30:02.364Z,2.83
2019-04-10T15:32:29.411Z,2.73
2019-04-10T15:34:56.370Z,2.17
2019-04-10T15:37:23.006Z,2.50
2019-04-10T15:39:49.876Z,2.33
2019-04-10T15:42:16.832Z,2.10
2019-04-10T15:44:43.400Z,1.93
2019-04-10T15:47:17.506Z,2.30
2019-04-10T15:49:39.332Z,1.93
2019-04-10T15:52:06.462Z,2.40
2019-04-10T15:54:34.600Z,2.20
2019-04-10T15:57:02.659Z,2.37
2019-04-10T15:59:30.265Z,2.50
2019-04-10T16:01:57.307Z,2.70
2019-04-10T16:04:24.145Z,2.53
2019-04-10T16:06:51.010Z,2.50
2019-04-10T16:09:18.742Z,2.20
2019-04-10T16:11:54.253Z,2.50
2019-04-10T16:14:25.594Z,1.80
2019-04-10T16:17:08.818Z,2.63
2019-04-10T16:19:47.006Z,2.20
2019-04-10T16:22:27.633Z,2.20
2019-04-10T16:24:58.235Z,2.30
2019-04-10T16:27:24.871Z,2.23
2019-04-10T16:29:53.169Z,2.73
2019-04-10T16:32:21.155Z,2.40
2019-04-10T16:34:49.098Z,2.50
2019-04-10T16:37:16.739Z,2.50
2019-04-10T16:39:45.544Z,2.67
2019-04-10T16:42:12.691Z,2.87
2019-04-10T16:44:39.353Z,2.80
2019-04-10T16:47:06.219Z,2.57
2019-04-10T16:49:35.047Z,2.80
2019-04-10T16:52:07.113Z,2.53
2019-04-10T16:54:40.983Z,2.90
2019-04-10T16:57:10.778Z,2.80
2019-04-10T16:59:37.780Z,2.43
2019-04-10T17:02:05.565Z,2.70
2019-04-10T17:04:36.054Z,2.90
2019-04-10T17:07:03.014Z,2.57
2019-04-10T17:09:30.163Z,3.10
2019-04-10T17:11:58.737Z,2.90
2019-04-10T17:14:25.370Z,2.43
2019-04-10T17:16:53.934Z,2.80
2019-04-10T17:19:21.596Z,2.60
2019-04-10T17:21:48.229Z,2.67
2019-04-10T17:24:15.355Z,2.50
2019-04-10T17:26:43.447Z,2.00
2019-04-10T17:29:12.610Z,2.47
2019-04-10T17:31:40.421Z,3.40
2019-04-10T17:34:08.289Z,2.60
2019-04-10T17:36:36.801Z,2.83
2019-04-10T17:39:07.126Z,2.50
2019-04-10T17:41:33.885Z,2.50
2019-04-10T17:44:02.864Z,2.50
2019-04-10T17:46:31.164Z,2.37
2019-04-10T17:48:58.872Z,3.00
2019-04-10T17:51:25.953Z,2.47
2019-04-10T17:53:53.741Z,2.40
2019-04-10T17:56:20.481Z,2.60
2019-04-10T17:58:47.194Z,2.47
2019-04-10T18:01:14.005Z,3.00
2019-04-10T18:03:49.391Z,2.40
2019-04-10T18:06:10.947Z,3.10
2019-04-10T18:08:39.186Z,2.50
2019-04-10T18:11:06.507Z,2.53
2019-04-10T18:13:34.428Z,2.27
2019-04-10T18:16:02.206Z,2.80
2019-04-10T18:18:29.600Z,2.80
2019-04-10T18:20:56.332Z,2.57
2019-04-10T18:23:23.328Z,2.80
2019-04-10T18:25:51.905Z,3.00
2019-04-10T18:28:19.214Z,4.17
2019-04-10T18:30:46.137Z,9.40
2019-04-10T18:33:14.174Z,5.70
2019-04-10T18:35:41.278Z,4.83
2019-04-10T18:38:09.058Z,3.83
2019-04-10T18:40:35.713Z,3.63
2019-04-10T18:43:02.662Z,3.63
2019-04-10T18:45:30.130Z,3.57
2019-04-10T18:47:58.364Z,3.13
2019-04-10T18:50:26.693Z,3.20
2019-04-10T18:52:53.914Z,2.60
2019-04-10T18:55:20.543Z,2.80
2019-04-10T18:57:47.336Z,3.37
2019-04-10T19:00:36.493Z,6.10
2019-04-10T19:03:15.149Z,4.80
2019-04-10T19:05:45.706Z,3.23
2019-04-10T19:08:14.097Z,2.93
2019-04-10T19:10:41.171Z,3.03
2019-04-10T19:13:07.779Z,3.10
2019-04-10T19:15:35.040Z,2.80
2019-04-10T19:18:01.946Z,3.17
2019-04-10T19:20:29.108Z,3.23
2019-04-10T19:22:56.816Z,3.13
2019-04-10T19:25:24.963Z,3.00
2019-04-10T19:27:52.705Z,3.80
2019-04-10T19:30:35.348Z,3.50
2019-04-10T19:33:02.674Z,3.30
2019-04-10T19:35:31.064Z,3.60
2019-04-10T19:37:57.847Z,3.20
2019-04-10T19:40:24.681Z,2.80
2019-04-10T19:42:51.519Z,3.57
2019-04-10T19:45:19.534Z,3.20
2019-04-10T19:47:48.190Z,3.63
2019-04-10T19:50:15.257Z,3.03
2019-04-10T19:52:42.010Z,3.30
2019-04-10T19:55:09.018Z,4.10
2019-04-10T19:57:35.901Z,3.97
2019-04-10T20:00:04.279Z,3.63
2019-04-10T20:02:31.408Z,3.77
2019-04-10T20:04:59.074Z,4.23
2019-04-10T20:07:27.192Z,3.90
2019-04-10T20:09:54.984Z,3.73
2019-04-10T20:12:21.738Z,4.53
2019-04-10T20:14:48.740Z,3.80
2019-04-10T20:17:15.711Z,4.23
2019-04-10T20:19:42.747Z,4.77
2019-04-10T20:22:09.652Z,4.40
2019-04-10T20:24:38.225Z,4.47
2019-04-10T20:27:04.975Z,3.70
2019-04-10T20:29:31.602Z,4.10
2019-04-10T20:31:59.204Z,4.60
2019-04-10T20:34:25.857Z,4.25
2019-04-10T20:36:53.376Z,3.97
2019-04-10T20:39:21.010Z,4.67
2019-04-10T20:41:52.313Z,4.13
2019-04-10T20:44:18.738Z,4.57
2019-04-10T20:46:46.843Z,4.53
2019-04-10T20:49:14.179Z,3.90
2019-04-10T20:51:42.081Z,4.97
2019-04-10T20:54:08.690Z,4.27
2019-04-10T20:56:35.381Z,4.30
2019-04-10T20:59:02.040Z,4.83
2019-04-10T21:01:29.596Z,4.80
2019-04-10T21:03:57.395Z,4.50
2019-04-10T21:06:25.478Z,4.77
2019-04-10T21:08:52.566Z,4.27
2019-04-10T21:11:20.162Z,4.47
2019-04-10T21:13:49.078Z,4.00
2019-04-10T21:16:16.033Z,4.43
2019-04-10T21:18:44.118Z,4.73
2019-04-10T21:21:12.274Z,4.60
2019-04-10T21:23:40.395Z,4.60
2019-04-10T21:26:08.130Z,4.57
2019-04-10T21:28:34.832Z,4.57
2019-04-10T21:31:09.803Z,5.03
2019-04-10T21:33:54.715Z,5.00
2019-04-10T21:36:22.577Z,4.93
2019-04-10T21:38:50.580Z,5.53
2019-04-10T21:41:18.088Z,4.80
2019-04-10T21:43:45.601Z,5.33
2019-04-10T21:46:12.886Z,5.77
2019-04-10T21:48:40.764Z,5.30
2019-04-10T21:51:08.810Z,5.50
2019-04-10T21:53:37.195Z,5.03
2019-04-10T21:56:04.250Z,5.17
2019-04-10T21:58:32.375Z,5.73
2019-04-10T22:01:07.744Z,5.37
2019-04-10T22:03:35.759Z,5.40
2019-04-10T22:06:43.132Z,5.97
2019-04-10T22:09:28.600Z,5.43
2019-04-10T22:11:57.524Z,5.10
2019-04-10T22:14:24.376Z,5.77
2019-04-10T22:16:51.157Z,5.60
2019-04-10T22:19:18.502Z,5.70
2019-04-10T22:21:46.297Z,5.47
2019-04-10T22:24:13.640Z,5.33
2019-04-10T22:26:40.685Z,5.63
2019-04-10T22:29:07.705Z,6.13
2019-04-10T22:31:35.547Z,5.53
2019-04-10T22:34:03.102Z,5.67
2019-04-10T22:36:31.469Z,5.70
2019-04-10T22:38:58.382Z,5.67
2019-04-10T22:41:30.672Z,6.33
2019-04-10T22:43:54.838Z,6.63
2019-04-10T22:46:21.821Z,6.43
2019-04-10T22:48:50.956Z,5.90
2019-04-10T22:51:19.210Z,6.17
2019-04-10T22:53:47.956Z,6.33
2019-04-10T22:56:15.531Z,6.27
2019-04-10T22:58:43.161Z,6.03
2019-04-10T23:01:13.028Z,6.47
2019-04-10T23:03:41.023Z,5.87
2019-04-10T23:06:09.115Z,6.20
2019-04-10T23:08:35.847Z,5.50
2019-04-10T23:11:03.652Z,6.20
2019-04-10T23:13:32.081Z,5.60
2019-04-10T23:15:59.845Z,5.10
2019-04-10T23:18:27.592Z,5.27
2019-04-10T23:20:54.314Z,5.07
2019-04-10T23:23:21.088Z,6.00
2019-04-10T23:25:48.787Z,6.00
2019-04-10T23:28:15.700Z,5.97
2019-04-10T23:30:43.470Z,6.03
2019-04-10T23:33:10.208Z,5.53
2019-04-10T23:35:37.909Z,5.77
2019-04-10T23:38:04.969Z,4.83
2019-04-10T23:40:32.826Z,5.13
2019-04-10T23:43:07.550Z,5.43
2019-04-10T23:45:28.035Z,5.40
2019-04-10T23:47:56.170Z,5.00
2019-04-10T23:50:23.906Z,5.07
2019-04-10T23:52:50.515Z,5.80
2019-04-10T23:55:17.877Z,5.23
2019-04-10T23:57:45.292Z,5.93
